Time;durP1;ratioP1;P1;durP2;ratioP2;P2;SDS_P1;SDS_P2;PMS_P1;PMS_P2;Temp;Humidity;BMP_temperature;BMP_pressure;BME280_temperature;BME280_humidity;BME280_pressure;Samples;Min_cycle;Max_cycle;Signal;HPM_P1;HPM_P2
2023/05/09 00:01:38;;;;;;;6.13;4.28;;;;;;;15.34;71.13;95540.91;5038167;28;20491;-78
2023/05/09 00:04:04;;;;;;;6.05;4.45;;;;;;;14.97;71.39;95483.06;5036077;28;20029;-78
2023/05/09 00:06:31;;;;;;;6.68;4.15;;;;;;;14.76;71.92;95437.22;5035900;28;20095;-78
2023/05/09 00:08:56;;;;;;;9.40;4.20;;;;;;;15.31;71.83;95520.13;5044167;28;20029;-78
2023/05/09 00:11:22;;;;;;;6.88;4.20;;;;;;;15.28;71.36;95515.38;5046407;28;20029;-78
2023/05/09 00:13:49;;;;;;;6.68;4.25;;;;;;;15.05;70.56;95515.22;5048989;28;20515;-78
2023/05/09 00:16:15;;;;;;;6.95;4.38;;;;;;;14.84;70.96;95495.28;5048881;28;20036;-78
2023/05/09 00:18:42;;;;;;;5.40;4.20;;;;;;;15.15;71.15;95535.63;5051567;28;20035;-79
2023/05/09 00:21:09;;;;;;;5.35;4.07;;;;;;;15.12;71.61;95506.03;5053066;28;20039;-78
2023/05/09 00:23:35;;;;;;;4.70;3.83;;;;;;;14.92;70.95;95505.31;5053800;28;20500;-78
2023/05/09 00:26:01;;;;;;;9.30;4.47;;;;;;;14.93;70.77;95474.84;5055110;28;20089;-78
2023/05/09 00:28:26;;;;;;;8.05;3.90;;;;;;;15.12;69.82;95493.47;5039019;28;20508;-79
2023/05/09 00:30:52;;;;;;;6.00;3.85;;;;;;;15.04;68.24;95496.81;5037223;28;20075;-79
2023/05/09 00:33:18;;;;;;;9.38;4.60;;;;;;;15.24;69.51;95511.72;5037251;28;20030;-78
2023/05/09 00:35:44;;;;;;;5.03;3.88;;;;;;;14.54;69.55;95400.50;5041937;28;20033;-78
2023/05/09 00:38:10;;;;;;;5.55;3.85;;;;;;;15.14;69.69;95495.84;5039269;28;20055;-78
2023/05/09 00:40:36;;;;;;;5.65;4.40;;;;;;;15.25;69.84;95500.75;5040385;28;20092;-78
2023/05/09 00:43:01;;;;;;;6.72;3.90;;;;;;;14.93;69.36;95450.81;5045829;28;20033;-79
2023/05/09 00:45:26;;;;;;;5.18;3.78;;;;;;;15.34;69.99;95512.31;5044957;28;20549;-78
2023/05/09 00:47:52;;;;;;;8.10;4.35;;;;;;;15.32;68.80;95519.06;5048498;28;20029;-78
2023/05/09 00:50:18;;;;;;;5.40;4.53;;;;;;;15.00;69.91;95471.78;5049666;28;20091;-78
2023/05/09 00:52:43;;;;;;;7.63;3.78;;;;;;;14.66;69.22;95429.38;5052911;28;20660;-78
2023/05/09 00:55:09;;;;;;;5.78;4.03;;;;;;;15.00;70.16;95493.16;5053616;28;20101;-78
2023/05/09 00:57:35;;;;;;;7.07;4.10;;;;;;;14.62;70.63;95423.06;5039083;28;20034;-78
2023/05/09 01:00:00;;;;;;;11.60;4.40;;;;;;;15.24;70.18;95515.19;5037364;28;20477;-78
2023/05/09 01:02:26;;;;;;;12.18;4.47;;;;;;;15.22;70.42;95517.34;5037512;28;20025;-79
2023/05/09 01:04:52;;;;;;;5.65;4.13;;;;;;;15.09;69.77;95504.75;5038932;28;20029;-78
2023/05/09 01:07:30;;;;;;;7.07;4.10;;;;;;;15.16;69.37;95517.72;5031199;28;20049;-78
2023/05/09 01:10:09;;;;;;;6.32;4.90;;;;;;;14.90;69.65;95470.09;5040455;28;20189;-78
2023/05/09 01:13:03;;;;;;;5.82;4.68;;;;;;;14.92;70.40;95478.59;5035540;28;20029;-78
2023/05/09 01:15:38;;;;;;;6.30;4.55;;;;;;;15.13;70.39;95512.97;5027331;28;20063;-78
2023/05/09 01:18:20;;;;;;;8.98;4.82;;;;;;;15.16;70.73;95510.50;5035386;28;20087;-78
2023/05/09 01:20:57;;;;;;;5.65;4.28;;;;;;;15.11;70.54;95515.13;5049994;28;20037;-78
2023/05/09 01:23:29;;;;;;;6.47;4.90;;;;;;;15.10;70.47;95511.69;5039180;28;20021;-78
2023/05/09 01:26:17;;;;;;;10.90;5.15;;;;;;;14.90;70.70;95487.97;5052713;28;20523;-77
2023/05/09 01:29:14;;;;;;;7.03;4.22;;;;;;;15.04;70.35;95515.50;5045343;28;20580;-77
2023/05/09 01:31:44;;;;;;;7.28;4.68;;;;;;;15.00;70.09;95495.84;5035242;28;20098;-77
2023/05/09 01:34:10;;;;;;;5.63;4.15;;;;;;;15.02;70.46;95518.50;5039015;28;20511;-77
2023/05/09 01:36:38;;;;;;;8.25;4.55;;;;;;;15.13;70.02;95515.63;5039501;28;20484;-77
2023/05/09 01:39:05;;;;;;;6.97;5.22;;;;;;;14.88;70.58;95474.13;5040761;28;20071;-78
2023/05/09 01:41:35;;;;;;;9.65;5.13;;;;;;;15.21;70.45;95518.44;5034665;28;20480;-78
2023/05/09 01:44:05;;;;;;;10.50;5.05;;;;;;;15.23;70.54;95521.59;5036706;28;20022;-77
2023/05/09 01:46:33;;;;;;;5.90;4.57;;;;;;;15.13;70.16;95500.41;5034395;28;20029;-77
2023/05/09 01:48:59;;;;;;;7.35;4.90;;;;;;;15.13;69.17;95495.06;5041806;28;20040;-77
2023/05/09 01:51:26;;;;;;;5.45;4.40;;;;;;;15.19;68.40;95509.13;5047296;28;20025;-77
2023/05/09 01:53:54;;;;;;;5.20;4.40;;;;;;;15.13;68.40;95511.09;5040499;28;20467;-77
2023/05/09 01:56:22;;;;;;;7.50;4.50;;;;;;;15.25;69.00;95532.81;5045269;28;20040;-77
2023/05/09 01:58:49;;;;;;;8.45;4.15;;;;;;;14.96;69.30;95487.59;5051394;28;20024;-77
2023/05/09 02:01:16;;;;;;;7.32;4.97;;;;;;;15.23;69.31;95520.81;5039591;28;20041;-77
2023/05/09 02:03:43;;;;;;;6.75;4.40;;;;;;;14.86;69.08;95481.66;5018580;28;20036;-77
2023/05/09 02:06:09;;;;;;;6.68;4.53;;;;;;;14.93;68.50;95493.53;5035307;28;20068;-77
2023/05/09 02:08:35;;;;;;;11.13;4.10;;;;;;;14.87;68.80;95481.38;5038870;28;20030;-78
2023/05/09 02:11:01;;;;;;;7.88;5.03;;;;;;;15.07;68.07;95509.59;5038580;28;20040;-78
2023/05/09 02:13:26;;;;;;;8.45;4.85;;;;;;;15.02;67.87;95507.03;5037120;28;20411;-77
2023/05/09 02:15:53;;;;;;;10.82;4.40;;;;;;;15.07;67.50;95523.75;5025568;28;20040;-77
2023/05/09 02:18:18;;;;;;;7.90;5.18;;;;;;;15.09;67.33;95522.66;5038360;28;20508;-77
2023/05/09 02:20:44;;;;;;;6.95;4.60;;;;;;;15.06;68.40;95524.84;5042406;28;20029;-77
2023/05/09 02:23:10;;;;;;;7.70;4.70;;;;;;;14.76;67.87;95479.94;5048697;28;20032;-77
2023/05/09 02:25:37;;;;;;;6.07;4.90;;;;;;;14.75;67.83;95475.69;5040605;28;20032;-77
2023/05/09 02:28:03;;;;;;;8.05;5.05;;;;;;;14.93;68.15;95504.22;5044683;28;20044;-77
2023/05/09 02:30:35;;;;;;;6.90;4.75;;;;;;;15.05;67.88;95519.78;5041239;28;20103;-77
2023/05/09 02:33:09;;;;;;;7.30;5.13;;;;;;;15.06;68.46;95532.03;5045813;28;20062;-77
2023/05/09 02:35:36;;;;;;;12.02;5.70;;;;;;;15.05;69.00;95533.13;5022048;28;20041;-77
2023/05/09 02:38:02;;;;;;;6.40;4.93;;;;;;;14.98;69.30;95517.47;5035331;28;20033;-77
2023/05/09 02:40:29;;;;;;;7.53;5.00;;;;;;;15.07;69.52;95529.09;5036434;28;20029;-77
2023/05/09 02:42:55;;;;;;;7.65;4.72;;;;;;;15.12;69.55;95530.88;5036454;28;20029;-77
2023/05/09 02:45:20;;;;;;;20.17;6.10;;;;;;;15.07;69.70;95510.41;5033371;28;20124;-78
2023/05/09 02:47:46;;;;;;;13.77;5.78;;;;;;;14.85;69.89;95466.72;5033087;28;20047;-77
2023/05/09 02:50:11;;;;;;;10.27;5.97;;;;;;;14.86;69.78;95465.63;5035055;28;20041;-77
2023/05/09 02:52:37;;;;;;;10.90;5.72;;;;;;;15.27;68.68;95527.13;5039340;28;20033;-77
2023/05/09 02:55:03;;;;;;;9.30;5.90;;;;;;;15.13;68.47;95499.59;5039005;28;20373;-77
2023/05/09 02:57:29;;;;;;;15.35;5.47;;;;;;;15.29;68.54;95531.13;5039587;28;20112;-77
2023/05/09 02:59:55;;;;;;;9.70;5.63;;;;;;;15.30;68.25;95518.56;5039743;28;20451;-78
2023/05/09 03:02:22;;;;;;;11.75;5.30;;;;;;;14.81;68.23;95449.69;5038538;28;20032;-78
2023/05/09 03:04:48;;;;;;;9.60;6.00;;;;;;;14.57;68.26;95418.56;5033574;28;20038;-78
2023/05/09 03:07:13;;;;;;;10.75;5.78;;;;;;;15.19;67.99;95528.59;5045919;28;20041;-78
2023/05/09 03:09:38;;;;;;;13.77;5.47;;;;;;;14.96;67.94;95505.50;5050764;28;20047;-78
2023/05/09 03:12:04;;;;;;;8.50;5.95;;;;;;;15.06;67.67;95524.84;5052063;28;20123;-78
2023/05/09 03:14:30;;;;;;;8.07;5.07;;;;;;;15.16;68.68;95541.78;5039244;28;20037;-78
2023/05/09 03:16:55;;;;;;;11.05;6.78;;;;;;;15.12;69.07;95544.22;5036392;28;20034;-78
2023/05/09 03:19:21;;;;;;;11.27;6.32;;;;;;;14.82;68.59;95494.00;5037252;28;20060;-78
2023/05/09 03:21:46;;;;;;;8.95;6.53;;;;;;;15.15;69.14;95557.00;5032763;28;20044;-78
2023/05/09 03:24:12;;;;;;;14.68;6.60;;;;;;;15.15;69.10;95565.03;5033074;28;20033;-78
2023/05/09 03:26:37;;;;;;;9.40;6.35;;;;;;;15.16;68.98;95566.63;5033068;28;20045;-78
2023/05/09 03:29:03;;;;;;;12.90;6.30;;;;;;;14.87;69.11;95524.09;5037628;28;20118;-78
2023/05/09 03:31:29;;;;;;;13.68;6.13;;;;;;;14.84;68.62;95521.19;5046076;28;20492;-77
2023/05/09 03:33:54;;;;;;;9.32;6.07;;;;;;;15.21;68.84;95569.19;5048040;28;20049;-78
2023/05/09 03:36:19;;;;;;;12.65;6.07;;;;;;;15.12;69.00;95559.47;5048741;28;20095;-78
2023/05/09 03:38:45;;;;;;;12.65;6.72;;;;;;;15.04;68.75;95553.69;5041210;28;20038;-77
2023/05/09 03:41:15;;;;;;;13.63;6.78;;;;;;;14.97;69.00;95545.28;5032565;28;20038;-78
2023/05/09 03:43:41;;;;;;;6.55;5.18;;;;;;;14.70;69.04;95523.03;5034040;28;20022;-78
2023/05/09 03:46:06;;;;;;;10.75;5.97;;;;;;;15.00;68.84;95562.59;5034806;28;20033;-78
2023/05/09 03:48:32;;;;;;;12.57;6.30;;;;;;;14.75;68.93;95531.75;5045360;28;20136;-79
2023/05/09 03:50:57;;;;;;;9.00;6.43;;;;;;;14.84;68.47;95539.88;5049020;28;20045;-78
2023/05/09 03:53:23;;;;;;;8.13;6.32;;;;;;;15.06;68.70;95564.91;5036040;28;20044;-77
2023/05/09 03:55:48;;;;;;;10.23;6.72;;;;;;;14.88;68.28;95524.84;5032001;28;20041;-77
2023/05/09 03:58:13;;;;;;;11.60;7.22;;;;;;;14.91;68.70;95537.63;5049029;28;20036;-77
2023/05/09 04:00:40;;;;;;;10.23;6.35;;;;;;;15.23;68.42;95587.59;5042407;28;20481;-77
2023/05/09 04:03:06;;;;;;;10.48;6.45;;;;;;;15.13;68.44;95556.50;5021571;28;20089;-78
2023/05/09 04:05:32;;;;;;;9.48;5.78;;;;;;;15.31;67.40;95578.94;5030481;28;20065;-77
2023/05/09 04:07:58;;;;;;;10.98;6.07;;;;;;;14.91;67.82;95522.41;5030995;28;20060;-77
2023/05/09 04:10:24;;;;;;;12.40;6.03;;;;;;;15.22;68.60;95581.47;5034735;28;20525;-77
2023/05/09 04:12:50;;;;;;;6.97;5.93;;;;;;;15.05;68.32;95557.97;5032660;28;20047;-77
2023/05/09 04:15:16;;;;;;;15.13;6.43;;;;;;;14.39;67.96;95445.31;5033552;28;20025;-78
2023/05/09 04:17:41;;;;;;;10.70;6.05;;;;;;;14.99;68.19;95550.31;5041894;28;20063;-77
2023/05/09 04:20:07;;;;;;;9.63;5.18;;;;;;;15.12;68.11;95556.78;5029934;28;20040;-78
2023/05/09 04:22:33;;;;;;;7.80;5.78;;;;;;;15.12;67.94;95556.78;5040634;28;20133;-78
2023/05/09 04:24:59;;;;;;;8.27;6.10;;;;;;;15.31;67.56;95569.03;5036435;28;20041;-78
2023/05/09 04:27:24;;;;;;;10.68;5.70;;;;;;;15.38;67.65;95590.81;5034827;28;20072;-77
2023/05/09 04:29:52;;;;;;;13.82;6.72;;;;;;;15.16;68.04;95560.47;5032805;28;20049;-78
2023/05/09 04:32:19;;;;;;;9.25;6.03;;;;;;;15.36;67.38;95574.28;5030713;28;20037;-78
2023/05/09 04:34:45;;;;;;;12.25;6.10;;;;;;;15.38;67.35;95572.13;5045219;28;20627;-78
2023/05/09 04:37:12;;;;;;;7.13;5.65;;;;;;;15.48;67.22;95594.41;5042756;28;20143;-78
2023/05/09 04:39:37;;;;;;;7.53;5.25;;;;;;;15.45;67.01;95569.06;5033632;28;20125;-78
2023/05/09 04:42:03;;;;;;;14.90;5.93;;;;;;;15.62;66.63;95600.59;5038875;28;20861;-78
2023/05/09 04:44:29;;;;;;;6.72;5.10;;;;;;;15.09;66.51;95507.44;5040576;28;20132;-78
2023/05/09 04:46:54;;;;;;;7.93;5.15;;;;;;;15.39;66.20;95555.00;5039696;28;20108;-78
2023/05/09 04:49:20;;;;;;;11.90;4.97;;;;;;;15.46;65.97;95557.28;5038493;28;20512;-78
2023/05/09 04:51:45;;;;;;;6.40;4.13;;;;;;;15.29;65.92;95533.78;5044852;28;20371;-78
2023/05/09 04:54:11;;;;;;;7.45;4.47;;;;;;;15.56;65.69;95569.72;5044459;28;20577;-78
2023/05/09 04:56:36;;;;;;;7.57;4.43;;;;;;;15.62;66.16;95568.53;5034299;28;20243;-78
2023/05/09 04:59:02;;;;;;;5.50;3.92;;;;;;;14.87;66.04;95454.66;5040275;28;20135;-78
2023/05/09 05:01:28;;;;;;;5.68;3.65;;;;;;;15.53;65.82;95548.88;5032457;28;20131;-78
2023/05/09 05:03:53;;;;;;;5.43;3.50;;;;;;;15.56;66.13;95548.31;5033634;28;20475;-78
2023/05/09 05:06:18;;;;;;;8.02;3.20;;;;;;;15.78;65.18;95586.66;5028959;28;20040;-79
2023/05/09 05:08:44;;;;;;;5.50;3.45;;;;;;;15.74;65.15;95560.81;5041391;28;20175;-78
2023/05/09 05:11:12;;;;;;;8.23;3.05;;;;;;;15.57;65.01;95537.31;5029411;28;20025;-81
2023/05/09 05:13:38;;;;;;;4.03;2.97;;;;;;;15.71;64.97;95564.88;5019312;28;20040;-80
2023/05/09 05:16:04;;;;;;;9.63;3.65;;;;;;;15.71;65.01;95554.19;5030628;28;20029;-79
2023/05/09 05:18:29;;;;;;;3.05;2.67;;;;;;;15.81;64.68;95567.34;5033755;28;20037;-81
2023/05/09 05:20:55;;;;;;;7.88;3.00;;;;;;;15.01;64.40;95463.50;5030030;28;20140;-78
2023/05/09 05:23:20;;;;;;;4.55;2.90;;;;;;;15.44;64.16;95498.78;5034390;28;20021;-81
2023/05/09 05:25:46;;;;;;;6.25;3.15;;;;;;;15.35;64.73;95497.06;5031793;28;20162;-79
2023/05/09 05:28:11;;;;;;;4.57;2.83;;;;;;;15.79;64.45;95566.06;5036747;28;20114;-79
2023/05/09 05:30:37;;;;;;;4.93;2.65;;;;;;;15.91;64.72;95578.94;5034109;28;20024;-79
2023/05/09 05:33:02;;;;;;;4.97;2.28;;;;;;;15.24;63.79;95472.44;5036454;28;20033;-79
2023/05/09 05:35:28;;;;;;;6.13;2.00;;;;;;;15.93;63.97;95582.91;5033389;28;20400;-79
2023/05/09 05:37:53;;;;;;;5.43;2.13;;;;;;;15.95;63.80;95596.75;5030262;28;20025;-81
2023/05/09 05:40:19;;;;;;;3.95;1.90;;;;;;;15.33;64.06;95486.66;5035239;28;20037;-79
2023/05/09 05:42:45;;;;;;;4.18;1.90;;;;;;;15.68;63.82;95560.13;5033200;28;20454;-80
2023/05/09 05:45:11;;;;;;;2.47;1.70;;;;;;;16.11;63.37;95605.28;5029767;28;20037;-78
2023/05/09 05:47:36;;;;;;;3.45;1.98;;;;;;;15.98;62.12;95572.09;5032730;28;20029;-79
2023/05/09 05:50:05;;;;;;;2.75;1.67;;;;;;;15.92;62.45;95575.97;5025426;28;20056;-80
2023/05/09 05:52:31;;;;;;;4.28;1.77;;;;;;;16.16;62.55;95600.66;5020334;28;20127;-79
2023/05/09 05:54:56;;;;;;;3.22;1.77;;;;;;;16.21;62.19;95583.69;5031225;28;20545;-81
2023/05/09 05:57:22;;;;;;;4.05;1.98;;;;;;;15.81;61.99;95571.91;5030321;28;20111;-83
2023/05/09 05:59:48;;;;;;;6.05;2.20;;;;;;;16.07;61.72;95574.88;5030404;28;20037;-80
2023/05/09 06:02:15;;;;;;;11.88;2.92;;;;;;;16.30;61.37;95605.19;5024838;28;20361;-78
2023/05/09 06:04:40;;;;;;;9.60;2.70;;;;;;;16.09;61.65;95572.72;5021395;28;20026;-78
2023/05/09 06:07:06;;;;;;;11.52;2.70;;;;;;;16.47;60.94;95595.47;5019786;28;20111;-77
2023/05/09 06:09:31;;;;;;;3.42;2.20;;;;;;;16.33;60.73;95593.88;5058910;28;20040;-77
2023/05/09 06:11:57;;;;;;;6.15;2.33;;;;;;;16.19;61.25;95578.63;5030802;28;20804;-78
2023/05/09 06:14:22;;;;;;;3.72;2.35;;;;;;;16.21;61.03;95589.84;5020490;28;20095;-77
2023/05/09 06:16:48;;;;;;;4.88;2.15;;;;;;;15.75;60.85;95508.91;5023334;28;20038;-77
2023/05/09 06:19:13;;;;;;;7.88;2.10;;;;;;;16.42;60.44;95579.50;5041393;28;20040;-77
2023/05/09 06:21:38;;;;;;;4.95;1.65;;;;;;;16.17;60.68;95569.34;5022366;28;20037;-77
2023/05/09 06:24:04;;;;;;;1.90;1.70;;;;;;;16.49;59.70;95598.63;5025043;28;20065;-78
2023/05/09 06:26:30;;;;;;;3.75;1.52;;;;;;;16.50;59.53;95575.31;5021967;28;20042;-77
2023/05/09 06:28:55;;;;;;;3.70;2.03;;;;;;;16.69;59.35;95596.63;5024564;28;20427;-77
2023/05/09 06:31:21;;;;;;;2.85;1.63;;;;;;;16.39;59.32;95555.22;5025339;28;20206;-77
2023/05/09 06:33:46;;;;;;;2.83;1.70;;;;;;;16.64;59.43;95604.75;5025391;28;20366;-77
2023/05/09 06:36:12;;;;;;;4.03;1.30;;;;;;;16.47;59.15;95576.72;5019250;28;20171;-77
2023/05/09 06:38:37;;;;;;;10.27;2.42;;;;;;;16.23;59.48;95548.59;5026720;28;20043;-77
2023/05/09 06:41:02;;;;;;;2.22;1.30;;;;;;;16.48;58.57;95562.22;5029224;28;20034;-78
2023/05/09 06:43:28;;;;;;;2.92;1.40;;;;;;;16.69;58.54;95567.19;5026871;28;20040;-78
2023/05/09 06:45:53;;;;;;;2.13;1.55;;;;;;;16.53;58.10;95532.69;5024961;28;20048;-78
2023/05/09 06:48:19;;;;;;;7.53;1.60;;;;;;;16.72;58.33;95553.97;5029789;28;20033;-77
2023/05/09 06:50:44;;;;;;;6.32;1.40;;;;;;;17.07;57.66;95602.47;5030045;28;20037;-78
2023/05/09 06:53:10;;;;;;;4.30;1.50;;;;;;;16.82;57.93;95569.81;5024456;28;20133;-80
2023/05/09 06:55:35;;;;;;;1.95;1.50;;;;;;;16.95;57.75;95565.50;5014250;28;20098;-79
2023/05/09 06:58:01;;;;;;;3.38;2.22;;;;;;;16.95;57.11;95563.59;5025686;28;20385;-78
2023/05/09 07:00:27;;;;;;;1.75;1.55;;;;;;;17.02;57.27;95592.66;5027985;28;20112;-77
2023/05/09 07:02:52;;;;;;;2.97;1.92;;;;;;;17.01;57.16;95582.25;5023206;28;20643;-80
2023/05/09 07:05:18;;;;;;;8.55;2.05;;;;;;;16.55;57.30;95522.44;5019853;28;20416;-80
2023/05/09 07:07:43;;;;;;;2.95;1.80;;;;;;;16.47;57.08;95503.66;5020821;28;20033;-79
2023/05/09 07:10:09;;;;;;;4.78;1.77;;;;;;;17.03;56.89;95594.22;5023589;28;20040;-79
2023/05/09 07:12:34;;;;;;;6.85;1.40;;;;;;;16.58;56.12;95505.00;5015812;28;21073;-79
2023/05/09 07:15:00;;;;;;;5.65;1.55;;;;;;;16.87;57.67;95550.13;5025835;28;20037;-78
2023/05/09 07:17:25;;;;;;;2.22;1.77;;;;;;;17.13;57.29;95564.53;5027322;28;20091;-78
2023/05/09 07:19:51;;;;;;;6.00;1.42;;;;;;;17.10;56.98;95593.81;5023122;28;20526;-78
2023/05/09 07:22:16;;;;;;;3.88;2.05;;;;;;;17.11;56.90;95574.75;5040703;28;20091;-78
2023/05/09 07:24:43;;;;;;;4.80;1.58;;;;;;;17.06;55.95;95555.34;5026665;28;20136;-78
2023/05/09 07:27:08;;;;;;;5.05;1.90;;;;;;;17.25;55.72;95569.31;5032280;28;20041;-79
2023/05/09 07:29:34;;;;;;;3.38;1.75;;;;;;;17.33;55.63;95580.09;5033084;28;20061;-78
2023/05/09 07:32:00;;;;;;;9.57;2.80;;;;;;;17.30;55.46;95553.13;5035555;28;20040;-82
2023/05/09 07:34:25;;;;;;;4.18;1.60;;;;;;;17.38;55.70;95560.44;5032320;28;20041;-78
2023/05/09 07:36:51;;;;;;;4.43;1.60;;;;;;;17.56;55.23;95596.94;5023389;28;20128;-78
2023/05/09 07:39:16;;;;;;;5.80;1.67;;;;;;;17.18;55.33;95567.06;5026769;28;20096;-77
2023/05/09 07:41:42;;;;;;;6.20;1.60;;;;;;;17.34;55.58;95568.28;5026409;28;20547;-78
2023/05/09 07:44:08;;;;;;;2.92;1.85;;;;;;;17.70;55.29;95602.25;5025027;28;20268;-77
2023/05/09 07:46:39;;;;;;;3.45;1.52;;;;;;;17.56;54.37;95575.50;5024143;28;20132;-78
2023/05/09 07:49:05;;;;;;;3.42;1.60;;;;;;;17.58;54.60;95564.47;5029460;28;20124;-77
2023/05/09 07:51:31;;;;;;;4.28;2.00;;;;;;;17.70;55.19;95589.63;5015937;28;20568;-81
2023/05/09 07:53:56;;;;;;;2.15;1.45;;;;;;;17.77;54.63;95583.06;5026161;28;20697;-80
2023/05/09 07:56:22;;;;;;;2.83;1.85;;;;;;;17.52;55.07;95569.19;5030017;28;20040;-80
2023/05/09 07:58:47;;;;;;;2.45;1.70;;;;;;;17.88;54.50;95605.81;5038486;28;20069;-78
2023/05/09 08:01:13;;;;;;;2.42;1.63;;;;;;;17.56;54.42;95575.50;5031784;28;20033;-79
2023/05/09 08:03:38;;;;;;;8.70;1.90;;;;;;;17.81;54.25;95600.91;5019992;28;20033;-80
2023/05/09 08:06:04;;;;;;;4.80;2.05;;;;;;;17.51;54.92;95583.69;5028490;28;20029;-79
2023/05/09 08:08:29;;;;;;;5.35;1.80;;;;;;;17.67;54.66;95581.44;5025695;28;20025;-80
2023/05/09 08:10:55;;;;;;;5.32;2.00;;;;;;;17.42;54.45;95545.31;5031231;28;20040;-80
2023/05/09 08:13:21;;;;;;;2.20;1.73;;;;;;;17.41;55.49;95597.34;5026531;28;20029;-79
2023/05/09 08:15:47;;;;;;;5.13;1.90;;;;;;;17.55;54.75;95584.63;5025903;28;20029;-79
2023/05/09 08:18:13;;;;;;;3.65;1.70;;;;;;;17.78;54.76;95598.81;5034271;28;20080;-79
2023/05/09 08:20:39;;;;;;;3.90;1.35;;;;;;;17.78;54.62;95587.31;5021174;28;20068;-80
2023/05/09 08:23:05;;;;;;;2.40;1.60;;;;;;;17.85;54.39;95609.16;5026859;28;20063;-80
2023/05/09 08:25:31;;;;;;;4.78;1.45;;;;;;;17.45;54.63;95547.38;5008214;28;20037;-80
2023/05/09 08:27:56;;;;;;;7.13;1.70;;;;;;;17.99;54.04;95583.78;5027437;28;20444;-82
2023/05/09 08:30:28;;;;;;;5.68;1.42;;;;;;;18.08;53.42;95570.38;5033594;28;20108;-79
2023/05/09 08:32:55;;;;;;;3.05;1.35;;;;;;;17.51;54.79;95481.00;5026839;28;20635;-79
2023/05/09 08:35:23;;;;;;;2.33;1.50;;;;;;;18.38;55.46;95585.66;5029905;28;20040;-77
2023/05/09 08:37:50;;;;;;;3.17;1.40;;;;;;;18.52;52.78;95591.69;5029462;28;20048;-80
2023/05/09 08:40:17;;;;;;;1.67;1.10;;;;;;;18.56;53.54;95575.75;5032032;28;20045;-80
2023/05/09 08:42:48;;;;;;;5.15;1.60;;;;;;;18.36;53.83;95587.84;5023642;28;20363;-79
2023/05/09 08:45:15;;;;;;;2.70;1.10;;;;;;;18.47;53.34;95597.19;5030786;28;20424;-89
2023/05/09 08:47:41;;;;;;;3.10;1.23;;;;;;;18.17;54.00;95565.84;5034845;28;20045;-83
2023/05/09 08:50:09;;;;;;;3.08;1.23;;;;;;;18.31;52.06;95598.72;5035595;28;20121;-84
2023/05/09 08:52:34;;;;;;;1.95;1.10;;;;;;;18.53;52.79;95589.78;5024033;28;20570;-78
2023/05/09 08:55:05;;;;;;;3.47;1.70;;;;;;;18.24;51.86;95554.63;5022376;28;20131;-78
2023/05/09 08:57:34;;;;;;;2.17;1.48;;;;;;;18.02;53.86;95556.31;5030107;28;20037;-79
2023/05/09 08:59:59;;;;;;;6.20;1.30;;;;;;;18.27;52.08;95570.13;5029919;28;20752;-77
2023/05/09 09:02:25;;;;;;;2.50;1.13;;;;;;;18.34;51.85;95568.56;5036389;28;20114;-79
2023/05/09 09:04:50;;;;;;;3.92;1.33;;;;;;;18.55;51.50;95592.13;5027715;28;20033;-79
2023/05/09 09:07:17;;;;;;;1.00;0.90;;;;;;;18.41;50.95;95582.31;5019699;28;20648;-79
2023/05/09 09:09:45;;;;;;;5.30;1.80;;;;;;;18.15;50.92;95565.38;5030258;28;20055;-79
2023/05/09 09:12:12;;;;;;;2.00;1.00;;;;;;;18.11;51.75;95583.19;5029859;28;20037;-79
2023/05/09 09:14:44;;;;;;;1.58;1.00;;;;;;;17.90;51.00;95569.53;5022529;28;20526;-79
2023/05/09 09:17:14;;;;;;;4.32;1.50;;;;;;;17.71;51.81;95561.72;5028156;28;20052;-79
2023/05/09 09:19:42;;;;;;;4.65;1.30;;;;;;;17.68;51.62;95546.25;5032970;28;20099;-79
2023/05/09 09:22:12;;;;;;;3.55;1.40;;;;;;;17.85;52.63;95563.53;5030646;28;20030;-78
2023/05/09 09:24:38;;;;;;;5.10;1.42;;;;;;;17.61;54.01;95575.41;5028630;28;20033;-78
2023/05/09 09:27:05;;;;;;;3.20;1.30;;;;;;;17.66;53.97;95572.59;5069406;28;20147;-79
2023/05/09 09:29:32;;;;;;;3.60;1.33;;;;;;;17.90;53.48;95590.22;5036256;28;20049;-78
2023/05/09 09:32:01;;;;;;;2.15;1.63;;;;;;;17.85;53.65;95585.75;5029528;28;20080;-78
2023/05/09 09:34:27;;;;;;;4.47;1.40;;;;;;;18.18;53.52;95588.91;5035534;28;20123;-79
2023/05/09 09:36:54;;;;;;;4.25;1.70;;;;;;;17.38;53.93;95457.78;5031329;28;20037;-77
2023/05/09 09:39:20;;;;;;;3.42;1.50;;;;;;;18.06;54.45;95561.88;5028522;28;20033;-76
2023/05/09 09:41:46;;;;;;;1.50;1.25;;;;;;;18.26;53.82;95588.13;5025214;28;20049;-78
2023/05/09 09:44:16;;;;;;;3.03;1.40;;;;;;;18.49;54.51;95584.25;5054159;28;20444;-79
2023/05/09 09:46:49;;;;;;;2.00;1.30;;;;;;;19.21;51.09;95581.00;5027671;28;20562;-78
2023/05/09 09:49:20;;;;;;;1.20;1.10;;;;;;;19.90;49.73;95580.88;5029858;28;20148;-78
2023/05/09 09:51:53;;;;;;;1.20;0.93;;;;;;;20.20;48.71;95565.53;5020104;28;20542;-79
2023/05/09 09:54:19;;;;;;;4.60;1.10;;;;;;;20.47;47.08;95583.13;5032903;28;20045;-82
2023/05/09 09:56:53;;;;;;;2.22;1.42;;;;;;;20.19;47.44;95560.47;5018897;28;20424;-79
2023/05/09 09:59:24;;;;;;;1.50;1.17;;;;;;;20.15;47.06;95576.47;5029898;28;20048;-83
2023/05/09 10:01:54;;;;;;;2.38;1.40;;;;;;;19.49;47.18;95487.31;5047405;28;20236;-82
2023/05/09 10:04:20;;;;;;;2.33;1.27;;;;;;;19.38;48.96;95568.59;5018308;28;20078;-83
2023/05/09 10:07:01;;;;;;;2.78;1.35;;;;;;;19.57;49.17;95583.31;5007082;28;20156;-81
2023/05/09 10:09:27;;;;;;;2.28;1.52;;;;;;;18.91;50.21;95538.97;5026299;28;20114;-80
2023/05/09 10:11:54;;;;;;;4.63;1.58;;;;;;;19.34;49.82;95583.81;5012076;28;20660;-80
2023/05/09 10:14:25;;;;;;;3.97;1.33;;;;;;;18.87;49.91;95497.69;5011208;28;20141;-78
2023/05/09 10:16:54;;;;;;;6.20;2.37;;;;;;;19.03;49.78;95549.84;5015829;28;20049;-78
2023/05/09 10:19:21;;;;;;;3.03;1.50;;;;;;;19.15;49.36;95523.09;5017561;28;20069;-81
2023/05/09 10:22:04;;;;;;;5.85;1.65;;;;;;;19.03;49.98;95524.88;5016336;28;20045;-79
2023/05/09 10:25:04;;;;;;;1.85;1.45;;;;;;;19.67;48.61;95571.44;5031137;28;20028;-87
2023/05/09 10:27:34;;;;;;;4.55;1.70;;;;;;;19.51;49.76;95573.84;5018259;28;20040;-79
2023/05/09 10:30:07;;;;;;;3.58;1.63;;;;;;;19.37;50.17;95548.22;5017144;28;20358;-79
2023/05/09 10:33:14;;;;;;;1.52;1.42;;;;;;;19.51;49.53;95562.31;5017357;28;20148;-79
2023/05/09 10:35:44;;;;;;;3.35;1.60;;;;;;;19.63;48.80;95540.88;4989691;28;20034;-78
2023/05/09 10:38:11;;;;;;;2.67;2.00;;;;;;;20.20;49.44;95564.72;4989172;28;20553;-78
2023/05/09 10:40:37;;;;;;;2.63;2.08;;;;;;;20.56;47.87;95566.91;5008801;28;20049;-79
2023/05/09 10:43:04;;;;;;;3.72;1.70;;;;;;;20.71;46.11;95547.47;5015825;28;20047;-78
2023/05/09 10:45:30;;;;;;;7.40;2.30;;;;;;;20.55;46.95;95519.53;5021828;28;20049;-78
2023/05/09 10:47:57;;;;;;;2.53;2.10;;;;;;;20.72;46.37;95544.47;5021393;28;20034;-79
2023/05/09 10:50:23;;;;;;;3.38;2.00;;;;;;;20.97;46.26;95563.47;5021535;28;20118;-79
2023/05/09 10:53:09;;;;;;;3.53;1.85;;;;;;;20.52;45.95;95533.69;5022103;28;20029;-78
2023/05/09 10:55:55;;;;;;;3.17;1.55;;;;;;;20.42;46.69;95577.94;5026490;28;20216;-79
2023/05/09 10:58:32;;;;;;;4.75;1.90;;;;;;;20.39;47.39;95567.81;5023143;28;20479;-79
2023/05/09 11:01:00;;;;;;;3.85;1.90;;;;;;;20.32;47.33;95551.34;5029379;28;20033;-79
2023/05/09 11:03:27;;;;;;;4.00;2.33;;;;;;;19.84;47.67;95511.38;5014909;28;20040;-79
2023/05/09 11:05:55;;;;;;;8.15;1.83;;;;;;;20.24;47.57;95571.81;5008521;28;20412;-79
2023/05/09 11:08:22;;;;;;;2.67;2.25;;;;;;;20.20;48.26;95568.22;5017547;28;20162;-79
2023/05/09 11:10:48;;;;;;;5.45;2.53;;;;;;;20.03;48.29;95557.53;5020329;28;20116;-79
2023/05/09 11:13:18;;;;;;;2.85;2.55;;;;;;;20.09;47.21;95544.66;5003527;28;20589;-79
2023/05/09 11:15:55;;;;;;;5.10;2.88;;;;;;;20.12;47.64;95574.44;5007175;28;20121;-82
2023/05/09 11:18:20;;;;;;;3.90;2.45;;;;;;;19.92;47.75;95545.53;5012915;28;20033;-80
2023/05/09 11:20:48;;;;;;;5.63;2.67;;;;;;;19.68;47.92;95521.91;5009510;28;20052;-82
2023/05/09 11:23:21;;;;;;;2.75;2.25;;;;;;;19.84;48.53;95552.53;5006525;28;20040;-79
2023/05/09 11:25:48;;;;;;;5.68;2.67;;;;;;;19.43;49.54;95531.59;5011447;28;20123;-78
2023/05/09 11:28:31;;;;;;;4.90;2.15;;;;;;;19.87;47.88;95578.81;5014039;28;20059;-84
2023/05/09 11:31:15;;;;;;;2.42;2.22;;;;;;;20.05;47.93;95582.22;5010493;28;20044;-79
2023/05/09 11:33:42;;;;;;;4.43;2.50;;;;;;;20.02;48.49;95574.78;5011105;28;20037;-79